Terminal Aerodrome Forecast
Issued by NWS Tampa Bay Area, FL

Home | Current Version | Previous Version | Text Only | Print | Product List | Glossary Off
Versions: 1 2 3 4 5 6 7 8 9 10 11 12 13 14

000
FTUS42 KTBW 301733
TAFFMY
TAF
KFMY 301733Z 3018/0118 14012G18KT P6SM SCT050 BKN250
     FM010000 12009KT P6SM FEW040 SCT250
     FM011400 16012G18KT P6SM SCT040 BKN250=

USA.gov is the U.S. government's official web portal to all federal, state and local government web resources and services.